createdAt,value
2023-03-29T00:01:46.083Z,5.40
2023-03-29T00:04:16.034Z,5.70
2023-03-29T00:09:16.666Z,5.50
2023-03-29T00:11:45.603Z,6.80
2023-03-29T00:14:14.277Z,8.10
2023-03-29T00:16:44.884Z,8.70
2023-03-29T00:19:13.311Z,7.30
2023-03-29T00:21:41.650Z,7.10
2023-03-29T00:24:10.053Z,7.20
2023-03-29T00:26:38.671Z,7.30
2023-03-29T00:29:06.886Z,8.10
2023-03-29T00:31:35.277Z,6.60
2023-03-29T00:34:03.637Z,5.60
2023-03-29T00:36:31.933Z,5.80
2023-03-29T00:39:00.229Z,5.60
2023-03-29T00:41:29.490Z,6.00
2023-03-29T00:44:03.762Z,8.20
2023-03-29T00:46:32.575Z,8.20
2023-03-29T00:49:09.756Z,7.30
2023-03-29T00:51:41.643Z,6.90
2023-03-29T00:54:15.348Z,4.70
2023-03-29T00:56:48.231Z,4.40
2023-03-29T00:59:21.860Z,5.20
2023-03-29T01:01:54.963Z,6.40
2023-03-29T01:04:29.661Z,7.70
2023-03-29T01:07:07.530Z,8.00
2023-03-29T01:09:38.374Z,6.80
2023-03-29T01:12:17.352Z,6.30
2023-03-29T01:14:58.836Z,5.50
2023-03-29T01:17:27.277Z,5.40
2023-03-29T01:20:14.241Z,8.10
2023-03-29T01:23:04.544Z,6.50
2023-03-29T01:25:54.411Z,5.50
2023-03-29T01:28:30.046Z,4.30
2023-03-29T01:31:09.360Z,4.50
2023-03-29T01:33:52.387Z,3.80
2023-03-29T01:36:35.166Z,3.80
2023-03-29T01:39:06.197Z,3.50
2023-03-29T01:41:48.458Z,3.50
2023-03-29T01:44:27.728Z,3.90
2023-03-29T01:47:21.252Z,3.40
2023-03-29T01:50:13.295Z,3.80
2023-03-29T01:52:54.123Z,3.90
2023-03-29T01:55:33.532Z,4.20
2023-03-29T01:58:05.204Z,3.90
2023-03-29T02:00:36.499Z,3.60
2023-03-29T02:03:08.512Z,4.20
2023-03-29T02:05:39.758Z,4.00
2023-03-29T02:08:11.367Z,3.60
2023-03-29T02:10:40.794Z,3.20
2023-03-29T02:13:09.014Z,3.00
2023-03-29T02:15:37.685Z,3.30
2023-03-29T02:18:07.052Z,3.40
2023-03-29T02:20:42.079Z,3.20
2023-03-29T02:23:24.716Z,2.90
2023-03-29T02:25:54.379Z,3.80
2023-03-29T02:28:24.975Z,4.00
2023-03-29T02:31:13.138Z,5.10
2023-03-29T02:33:52.311Z,5.50
2023-03-29T02:36:29.636Z,4.60
2023-03-29T02:39:00.955Z,4.90
2023-03-29T02:41:29.262Z,4.40
2023-03-29T02:43:59.481Z,4.50
2023-03-29T02:46:28.518Z,3.80
2023-03-29T02:48:58.964Z,3.80
2023-03-29T02:51:34.266Z,3.60
2023-03-29T02:54:21.983Z,3.30
2023-03-29T02:56:57.947Z,4.00
2023-03-29T02:59:27.466Z,3.90
2023-03-29T03:01:56.019Z,4.00
2023-03-29T03:04:25.725Z,5.10
2023-03-29T03:06:54.459Z,4.90
2023-03-29T03:09:22.790Z,5.40
2023-03-29T03:11:52.127Z,6.10
2023-03-29T03:14:23.155Z,6.00
2023-03-29T03:16:53.056Z,5.60
2023-03-29T03:19:22.627Z,5.40
2023-03-29T03:21:51.284Z,5.40
2023-03-29T03:24:19.569Z,5.30
2023-03-29T03:26:47.829Z,5.20
2023-03-29T03:29:16.520Z,6.00
2023-03-29T03:31:45.182Z,5.30
2023-03-29T03:34:13.479Z,5.40
2023-03-29T03:36:41.697Z,5.80
2023-03-29T03:39:10.079Z,6.20
2023-03-29T03:41:38.453Z,6.60
2023-03-29T03:44:07.082Z,6.30
2023-03-29T03:46:35.441Z,6.80
2023-03-29T03:49:04.788Z,8.40
2023-03-29T03:51:33.067Z,10.90
2023-03-29T03:54:01.366Z,13.30
2023-03-29T03:56:30.082Z,16.00
2023-03-29T03:58:58.631Z,15.00
2023-03-29T04:01:27.612Z,14.00
2023-03-29T04:03:56.098Z,12.80
2023-03-29T04:06:25.645Z,8.70
2023-03-29T04:08:53.950Z,6.20
2023-03-29T04:11:22.242Z,5.30
2023-03-29T04:13:50.616Z,4.60
2023-03-29T04:16:18.906Z,4.30
2023-03-29T04:18:47.486Z,4.80
2023-03-29T04:21:17.836Z,4.40
2023-03-29T04:23:49.095Z,4.20
2023-03-29T04:26:18.318Z,4.40
2023-03-29T04:28:46.711Z,4.00
2023-03-29T04:31:15.617Z,3.80
2023-03-29T04:33:46.943Z,4.00
2023-03-29T04:36:16.212Z,3.60
2023-03-29T04:38:47.330Z,3.60
2023-03-29T04:41:16.239Z,3.50
2023-03-29T04:43:46.850Z,4.70
2023-03-29T04:46:15.657Z,5.70
2023-03-29T04:48:44.162Z,4.30
2023-03-29T04:51:12.952Z,3.80
2023-03-29T04:53:41.966Z,3.80
2023-03-29T04:56:14.553Z,3.50
2023-03-29T04:58:44.474Z,3.60
2023-03-29T05:01:12.891Z,3.80
2023-03-29T05:03:41.399Z,3.80
2023-03-29T05:06:12.221Z,4.00
2023-03-29T05:08:41.858Z,4.30
2023-03-29T05:11:11.856Z,3.90
2023-03-29T05:13:40.646Z,4.10
2023-03-29T05:16:11.382Z,3.60
2023-03-29T05:18:39.751Z,4.00
2023-03-29T05:21:08.047Z,3.40
2023-03-29T05:23:36.396Z,3.80
2023-03-29T05:26:05.402Z,4.10
2023-03-29T05:28:33.968Z,3.80
2023-03-29T05:31:05.982Z,4.00
2023-03-29T05:33:35.715Z,3.90
2023-03-29T05:36:05.908Z,3.80
2023-03-29T05:38:35.082Z,3.60
2023-03-29T05:41:03.928Z,4.00
2023-03-29T05:43:33.723Z,3.80
2023-03-29T05:46:02.145Z,4.00
2023-03-29T05:48:30.375Z,3.60
2023-03-29T05:50:59.316Z,4.00
2023-03-29T05:53:28.506Z,3.70
2023-03-29T05:55:56.733Z,3.60
2023-03-29T05:58:26.847Z,4.30
2023-03-29T06:00:55.442Z,4.10
2023-03-29T06:03:28.336Z,3.50
2023-03-29T06:06:02.588Z,3.80
2023-03-29T06:08:32.524Z,4.30
2023-03-29T06:13:34.547Z,3.10
2023-03-29T06:16:04.556Z,3.30
2023-03-29T06:18:33.604Z,3.90
2023-03-29T06:21:03.141Z,3.70
2023-03-29T06:23:32.259Z,3.30
2023-03-29T06:26:00.673Z,3.90
2023-03-29T06:28:29.071Z,3.70
2023-03-29T06:31:03.835Z,3.50
2023-03-29T06:33:34.301Z,3.60
2023-03-29T06:36:02.613Z,3.30
2023-03-29T06:38:31.245Z,3.40
2023-03-29T06:41:04.567Z,3.20
2023-03-29T06:43:33.453Z,3.20
2023-03-29T06:46:02.079Z,3.20
2023-03-29T06:48:30.670Z,2.80
2023-03-29T06:50:58.926Z,3.10
2023-03-29T06:53:28.343Z,3.10
2023-03-29T06:55:56.639Z,3.00
2023-03-29T06:58:25.013Z,3.00
2023-03-29T07:00:54.084Z,3.30
2023-03-29T07:03:24.493Z,3.10
2023-03-29T07:05:53.199Z,3.20
2023-03-29T07:08:22.635Z,3.10
2023-03-29T07:10:53.593Z,3.00
2023-03-29T07:13:23.892Z,2.90
2023-03-29T07:15:52.718Z,3.00
2023-03-29T07:18:21.385Z,3.30
2023-03-29T07:20:50.122Z,3.40
2023-03-29T07:23:18.562Z,2.60
2023-03-29T07:25:47.261Z,3.10
2023-03-29T07:28:15.502Z,3.10
2023-03-29T07:30:43.800Z,3.40
2023-03-29T07:33:12.583Z,2.90
2023-03-29T07:35:43.962Z,3.10
2023-03-29T07:38:12.377Z,3.10
2023-03-29T07:40:41.004Z,2.70
2023-03-29T07:43:11.222Z,3.10
2023-03-29T07:45:42.672Z,3.00
2023-03-29T07:48:11.179Z,3.00
2023-03-29T07:50:39.500Z,2.60
2023-03-29T07:53:07.742Z,2.70
2023-03-29T07:55:36.155Z,3.00
2023-03-29T07:58:04.555Z,3.10
2023-03-29T08:00:34.347Z,2.80
2023-03-29T08:05:40.678Z,2.60
2023-03-29T08:08:10.224Z,3.80
2023-03-29T08:10:39.693Z,5.20
2023-03-29T08:13:09.774Z,3.70
2023-03-29T08:18:08.534Z,3.80
2023-03-29T08:20:37.037Z,3.30
2023-03-29T08:23:05.418Z,3.50
2023-03-29T08:25:35.372Z,3.60
2023-03-29T08:28:03.828Z,3.40
2023-03-29T08:30:32.153Z,3.40
2023-03-29T08:33:00.518Z,3.40
2023-03-29T08:35:28.875Z,3.40
2023-03-29T08:37:57.101Z,3.10
2023-03-29T08:40:31.444Z,3.10
2023-03-29T08:43:02.400Z,3.50
2023-03-29T08:45:39.740Z,3.70
2023-03-29T08:48:28.992Z,4.80
2023-03-29T08:51:06.100Z,3.80
2023-03-29T08:53:38.749Z,3.90
2023-03-29T08:56:15.545Z,3.80
2023-03-29T08:58:45.900Z,3.40
2023-03-29T09:01:14.599Z,3.40
2023-03-29T09:04:14.998Z,3.60
2023-03-29T09:06:43.288Z,3.30
2023-03-29T09:09:33.124Z,3.10
2023-03-29T09:12:16.844Z,3.30
2023-03-29T09:14:57.370Z,3.80
2023-03-29T09:17:32.651Z,4.30
2023-03-29T09:20:27.755Z,3.60
2023-03-29T09:23:07.130Z,3.40
2023-03-29T09:25:53.432Z,3.50
2023-03-29T09:28:47.841Z,3.50
2023-03-29T09:31:30.439Z,4.00
2023-03-29T09:34:14.380Z,4.30
2023-03-29T09:36:43.537Z,4.30
2023-03-29T09:39:14.700Z,3.60
2023-03-29T09:41:50.830Z,3.10
2023-03-29T09:44:31.808Z,3.30
2023-03-29T09:47:09.281Z,3.60
2023-03-29T09:49:42.375Z,4.10
2023-03-29T09:52:14.536Z,3.50
2023-03-29T09:54:43.572Z,3.40
2023-03-29T09:57:14.150Z,4.00
2023-03-29T09:59:44.804Z,3.50
2023-03-29T10:02:14.682Z,3.50
2023-03-29T10:04:43.171Z,3.40
2023-03-29T10:07:20.967Z,3.70
2023-03-29T10:09:52.196Z,3.40
2023-03-29T10:12:21.077Z,3.20
2023-03-29T10:14:54.023Z,3.30
2023-03-29T10:17:25.578Z,3.00
2023-03-29T10:20:09.670Z,3.00
2023-03-29T10:22:40.742Z,3.00
2023-03-29T10:25:18.589Z,3.00
2023-03-29T10:27:48.183Z,3.10
2023-03-29T10:30:23.328Z,2.90
2023-03-29T10:33:00.414Z,3.10
2023-03-29T10:35:33.975Z,3.30
2023-03-29T10:38:07.888Z,3.10
2023-03-29T10:40:51.992Z,3.60
2023-03-29T10:43:20.279Z,3.20
2023-03-29T10:45:51.150Z,3.20
2023-03-29T10:48:35.048Z,3.10
2023-03-29T10:51:08.272Z,3.00
2023-03-29T10:53:38.416Z,3.60
2023-03-29T10:56:15.465Z,2.90
2023-03-29T10:59:05.405Z,3.10
2023-03-29T11:02:00.371Z,2.90
2023-03-29T11:04:47.862Z,3.10
2023-03-29T11:07:34.855Z,2.70
2023-03-29T11:10:48.436Z,3.30
2023-03-29T11:13:22.139Z,2.70
2023-03-29T11:16:02.864Z,3.20
2023-03-29T11:18:45.978Z,2.80
2023-03-29T11:21:41.857Z,3.10
2023-03-29T11:24:22.186Z,2.90
2023-03-29T11:27:13.276Z,3.00
2023-03-29T11:29:49.289Z,2.60
2023-03-29T11:32:34.856Z,2.60
2023-03-29T11:35:25.019Z,2.80
2023-03-29T11:38:02.374Z,2.40
2023-03-29T11:40:59.607Z,2.60
2023-03-29T11:43:32.343Z,2.30
2023-03-29T11:46:22.202Z,2.40
2023-03-29T11:49:12.186Z,2.40
2023-03-29T11:51:57.236Z,2.80
2023-03-29T11:54:45.975Z,2.60
2023-03-29T11:57:40.774Z,2.30
2023-03-29T12:00:58.646Z,2.50
2023-03-29T12:04:01.989Z,2.50
2023-03-29T12:06:41.635Z,2.20
2023-03-29T12:09:26.800Z,2.50
2023-03-29T12:12:03.496Z,2.90
2023-03-29T12:14:49.739Z,2.40
2023-03-29T12:17:24.445Z,2.20
2023-03-29T12:20:05.500Z,2.30
2023-03-29T12:22:34.117Z,2.40
2023-03-29T12:25:06.961Z,2.70
2023-03-29T12:28:03.530Z,2.70
2023-03-29T12:30:59.610Z,2.20
2023-03-29T12:34:00.591Z,2.40
2023-03-29T12:37:00.659Z,2.50
2023-03-29T12:39:31.237Z,2.40
2023-03-29T12:42:25.626Z,2.60
2023-03-29T12:45:01.886Z,2.90
2023-03-29T12:47:43.304Z,2.90
2023-03-29T12:50:35.733Z,3.00
2023-03-29T12:53:08.351Z,2.90
2023-03-29T12:55:43.796Z,3.10
2023-03-29T12:58:39.799Z,2.70
2023-03-29T13:01:22.056Z,2.70
2023-03-29T13:03:55.928Z,2.80
2023-03-29T13:06:32.093Z,3.50
2023-03-29T13:09:02.133Z,2.90
2023-03-29T13:11:41.555Z,3.10
2023-03-29T13:14:21.986Z,3.20
2023-03-29T13:16:50.569Z,3.60
2023-03-29T13:19:49.860Z,3.30
2023-03-29T13:22:24.580Z,3.00
2023-03-29T13:25:16.383Z,8.30
2023-03-29T13:27:52.773Z,4.70
2023-03-29T13:30:33.566Z,11.80
2023-03-29T13:33:20.139Z,12.60
2023-03-29T13:36:16.781Z,6.20
2023-03-29T13:38:52.581Z,3.90
2023-03-29T13:41:29.110Z,4.00
2023-03-29T13:43:58.969Z,4.00
2023-03-29T13:46:41.696Z,4.50
2023-03-29T13:49:20.663Z,3.80
2023-03-29T13:52:16.652Z,4.30
2023-03-29T13:55:07.558Z,3.90
2023-03-29T13:57:49.693Z,3.50
2023-03-29T14:00:29.231Z,4.40
2023-03-29T14:03:05.501Z,4.20
2023-03-29T14:05:44.415Z,4.80
2023-03-29T14:08:23.715Z,4.90
2023-03-29T14:10:53.831Z,5.20
2023-03-29T14:13:25.403Z,6.20
2023-03-29T14:15:57.567Z,5.90
2023-03-29T14:18:28.249Z,5.80
2023-03-29T14:20:57.045Z,4.70
2023-03-29T14:23:30.464Z,5.00
2023-03-29T14:26:19.146Z,4.70
2023-03-29T14:28:48.987Z,6.20
2023-03-29T14:33:57.756Z,6.40
2023-03-29T14:36:27.848Z,7.50
2023-03-29T14:39:11.675Z,5.70
2023-03-29T14:41:42.544Z,4.80
2023-03-29T14:44:14.151Z,5.50
2023-03-29T14:46:44.448Z,5.40
2023-03-29T14:49:16.897Z,4.10
2023-03-29T14:51:47.008Z,4.30
2023-03-29T14:54:22.502Z,4.60
2023-03-29T14:56:51.817Z,3.80
2023-03-29T14:59:39.170Z,3.70
2023-03-29T15:02:28.832Z,4.20
2023-03-29T15:05:00.172Z,4.30
2023-03-29T15:07:30.096Z,5.20
2023-03-29T15:12:32.799Z,3.60
2023-03-29T15:15:02.871Z,3.70
2023-03-29T15:17:51.135Z,3.60
2023-03-29T15:20:30.092Z,4.20
2023-03-29T15:23:09.933Z,3.90
2023-03-29T15:28:28.503Z,3.90
2023-03-29T15:31:12.182Z,4.40
2023-03-29T15:33:41.925Z,4.10
2023-03-29T15:36:12.729Z,4.20
2023-03-29T15:38:45.142Z,4.00
2023-03-29T15:41:14.793Z,4.30
2023-03-29T15:43:43.538Z,3.90
2023-03-29T15:46:14.930Z,4.50
2023-03-29T15:48:43.710Z,4.40
2023-03-29T15:51:12.824Z,4.20
2023-03-29T15:53:41.411Z,4.80
2023-03-29T15:56:16.043Z,4.70
2023-03-29T15:58:44.976Z,5.00
2023-03-29T16:01:39.737Z,4.80
2023-03-29T16:04:14.528Z,5.40
2023-03-29T16:06:45.208Z,5.60
2023-03-29T16:09:13.486Z,5.60
2023-03-29T16:11:43.820Z,5.80
2023-03-29T16:14:17.019Z,5.80
2023-03-29T16:16:45.334Z,5.50
2023-03-29T16:19:13.732Z,5.60
2023-03-29T16:21:43.381Z,6.00
2023-03-29T16:24:17.845Z,4.90
2023-03-29T16:26:47.216Z,5.00
2023-03-29T16:29:17.513Z,5.70
2023-03-29T16:31:47.493Z,7.00
2023-03-29T16:34:16.479Z,8.40
2023-03-29T16:36:45.962Z,8.30
2023-03-29T16:39:15.300Z,7.60
2023-03-29T16:41:45.388Z,8.80
2023-03-29T16:46:45.002Z,8.40
2023-03-29T16:49:18.266Z,7.70
2023-03-29T16:51:47.565Z,6.90
2023-03-29T16:54:17.477Z,7.20
2023-03-29T16:56:45.972Z,6.40
2023-03-29T16:59:14.379Z,6.70
2023-03-29T17:01:42.997Z,6.80
2023-03-29T17:04:11.782Z,6.20
2023-03-29T17:06:39.977Z,7.30
2023-03-29T17:09:09.798Z,7.30
2023-03-29T17:11:38.225Z,7.20
2023-03-29T17:14:07.165Z,5.00
2023-03-29T17:16:36.009Z,5.90
2023-03-29T17:19:04.449Z,5.30
2023-03-29T17:21:32.666Z,4.90
2023-03-29T17:24:01.060Z,5.50
2023-03-29T17:26:29.362Z,4.60
2023-03-29T17:28:57.762Z,4.20
2023-03-29T17:31:26.369Z,4.30
2023-03-29T17:33:55.237Z,4.20
2023-03-29T17:36:25.272Z,4.60
2023-03-29T17:39:02.456Z,4.00
2023-03-29T17:41:31.421Z,4.60
2023-03-29T17:43:59.910Z,4.60
2023-03-29T17:46:28.554Z,4.30
2023-03-29T17:48:59.222Z,4.10
2023-03-29T17:51:27.946Z,4.10
2023-03-29T17:53:57.416Z,4.10
2023-03-29T17:56:26.789Z,4.60
2023-03-29T17:58:55.266Z,7.00
2023-03-29T18:01:23.708Z,5.70
2023-03-29T18:03:59.656Z,6.10
2023-03-29T18:06:27.983Z,5.60
2023-03-29T18:09:01.720Z,5.90
2023-03-29T18:11:31.607Z,7.00
2023-03-29T18:14:01.245Z,6.80
2023-03-29T18:16:29.743Z,7.40
2023-03-29T18:18:58.173Z,6.10
2023-03-29T18:21:27.724Z,5.90
2023-03-29T18:23:57.008Z,6.30
2023-03-29T18:26:25.990Z,6.50
2023-03-29T18:28:54.421Z,6.50
2023-03-29T18:31:22.881Z,6.20
2023-03-29T18:33:51.639Z,7.10
2023-03-29T18:36:25.524Z,6.80
2023-03-29T18:38:56.224Z,6.70
2023-03-29T18:41:24.596Z,7.20
2023-03-29T18:43:54.938Z,6.90
2023-03-29T18:46:23.783Z,6.90
2023-03-29T18:48:53.528Z,6.30
2023-03-29T18:51:23.302Z,7.20
2023-03-29T18:53:53.141Z,7.10
2023-03-29T18:58:49.821Z,9.70
2023-03-29T19:01:18.550Z,9.50
2023-03-29T19:03:49.416Z,7.90
2023-03-29T19:06:19.515Z,7.90
2023-03-29T19:08:47.899Z,7.20
2023-03-29T19:11:16.420Z,7.60
2023-03-29T19:13:46.945Z,6.40
2023-03-29T19:16:16.147Z,6.40
2023-03-29T19:18:44.815Z,6.10
2023-03-29T19:21:13.240Z,6.30
2023-03-29T19:23:41.994Z,6.50
2023-03-29T19:26:11.729Z,7.30
2023-03-29T19:28:40.141Z,7.30
2023-03-29T19:31:08.465Z,7.40
2023-03-29T19:33:36.786Z,7.50
2023-03-29T19:36:06.145Z,7.00
2023-03-29T19:38:34.928Z,7.20
2023-03-29T19:41:10.395Z,7.40
2023-03-29T19:43:38.747Z,7.40
2023-03-29T19:46:10.694Z,7.40
2023-03-29T19:48:41.947Z,7.00
2023-03-29T19:51:10.354Z,7.20
2023-03-29T19:53:39.875Z,6.70
2023-03-29T19:56:11.192Z,7.00
2023-03-29T19:58:39.670Z,6.20
2023-03-29T20:01:08.054Z,6.40
2023-03-29T20:03:36.643Z,6.20
2023-03-29T20:06:05.496Z,6.30
2023-03-29T20:08:36.458Z,6.10
2023-03-29T20:11:10.649Z,6.40
2023-03-29T20:13:42.066Z,5.90
2023-03-29T20:16:16.162Z,6.40
2023-03-29T20:18:45.689Z,6.50
2023-03-29T20:21:17.123Z,6.30
2023-03-29T20:23:46.038Z,7.10
2023-03-29T20:26:14.474Z,6.30
2023-03-29T20:28:42.832Z,7.00
2023-03-29T20:31:11.202Z,6.00
2023-03-29T20:33:41.507Z,6.60
2023-03-29T20:36:11.043Z,6.20
2023-03-29T20:38:39.423Z,6.40
2023-03-29T20:41:09.548Z,6.20
2023-03-29T20:43:38.133Z,6.20
2023-03-29T20:46:15.095Z,6.80
2023-03-29T20:48:53.476Z,6.20
2023-03-29T20:51:28.417Z,6.90
2023-03-29T20:54:04.996Z,6.80
2023-03-29T20:56:40.026Z,6.50
2023-03-29T20:59:11.004Z,6.50
2023-03-29T21:01:41.092Z,7.10
2023-03-29T21:04:11.213Z,6.70
2023-03-29T21:09:08.777Z,6.80
2023-03-29T21:11:37.700Z,7.10
2023-03-29T21:14:06.176Z,6.40
2023-03-29T21:16:34.587Z,6.40
2023-03-29T21:19:02.821Z,6.70
2023-03-29T21:21:31.128Z,6.30
2023-03-29T21:23:59.484Z,6.40
2023-03-29T21:26:28.248Z,6.50
2023-03-29T21:28:56.517Z,6.60
2023-03-29T21:31:25.062Z,6.20
2023-03-29T21:33:56.461Z,6.70
2023-03-29T21:36:25.703Z,6.90
2023-03-29T21:38:54.178Z,7.10
2023-03-29T21:41:22.704Z,7.40
2023-03-29T21:43:51.307Z,6.80
2023-03-29T21:46:19.718Z,6.90
2023-03-29T21:48:48.015Z,6.70
2023-03-29T21:51:16.265Z,6.80
2023-03-29T21:53:44.551Z,6.60
2023-03-29T21:56:13.278Z,6.80
2023-03-29T21:58:42.052Z,7.20
2023-03-29T22:01:11.045Z,6.20
2023-03-29T22:03:39.479Z,6.10
2023-03-29T22:06:09.796Z,6.30
2023-03-29T22:08:39.159Z,6.30
2023-03-29T22:11:11.121Z,6.10
2023-03-29T22:13:39.931Z,6.70
2023-03-29T22:16:09.106Z,6.40
2023-03-29T22:18:49.760Z,6.50
2023-03-29T22:21:26.864Z,6.60
2023-03-29T22:23:56.709Z,6.40
2023-03-29T22:26:28.472Z,7.10
2023-03-29T22:28:59.099Z,6.50
2023-03-29T22:31:29.381Z,6.50
2023-03-29T22:33:58.826Z,6.90
2023-03-29T22:36:29.392Z,6.80
2023-03-29T22:38:58.485Z,6.80
2023-03-29T22:41:28.359Z,7.10
2023-03-29T22:43:58.677Z,7.00
2023-03-29T22:46:27.808Z,7.10
2023-03-29T22:48:56.570Z,7.00
2023-03-29T22:51:24.862Z,7.20
2023-03-29T22:53:53.432Z,7.50
2023-03-29T22:56:22.193Z,7.50
2023-03-29T22:58:50.788Z,8.00
2023-03-29T23:02:19.959Z,7.00
2023-03-29T23:06:09.502Z,6.90
2023-03-29T23:09:58.846Z,7.10
2023-03-29T23:13:49.496Z,7.30
2023-03-29T23:32:49.084Z,7.60
2023-03-29T23:36:38.335Z,7.30
2023-03-29T23:40:33.999Z,7.20
2023-03-29T23:56:14.441Z,7.20
